Terminal Aerodrome Forecast
Issued by NWS

Home | Current Version | Previous Version | Text Only | Print | Product List | Glossary On
Versions: 1 2 3 4 5 6 7 8 9 10 11 12 13 14
000
FTUS42 KFFC 250551
TAFPDK
TAF
KPDK 250551Z 2506/2606 17003KT P6SM -RA BKN070
     FM251000 15003KT 5SM -SHRA SCT025 BKN045
     FM251400 21008G13KT 5SM -SHRA OVC015
      TEMPO 2514/2518 2SM SHRA BR BKN015
     FM251800 22010G16KT P6SM VCSH BKN012 PROB30 2520/2524 2SM TSRA
      BKN012CB
     FM260000 23009G15KT P6SM BKN050=

USA.gov is the U.S. government's official web portal to all federal, state and local government web resources and services.